Terminal Aerodrome Forecast
Issued by NWS Albuquerque, NM

Home | Current Version | Previous Version | Text Only | Print | Product List | Glossary On
Versions: 1 2 3 4 5 6 7 8 9 10 11 12 13 14 15 16
000
FTUS45 KABQ 301300 AAA
TAFABQ
TAF AMD
KABQ 301359Z 3014/3112 09015KT 1SM -SN BR OVC015
     FM301500 09014KT 4SM -SN BR OVC025
      TEMPO 3015/3018 2SM -SN BR OVC025
     FM301800 09013KT 3SM -RASN BR SCT009 BKN019
     FM302100 09008KT 4SM -RA BR BKN015
     FM310200 09014G21KT 3SM -SNRA BR SCT005 BKN009=

USA.gov is the U.S. government's official web portal to all federal, state and local government web resources and services.